sensor_id;sensor_type;location;lat;lon;timestamp;pressure;altitude;pressure_sealevel;temperature;humidity
55540;BME280;41384;51.418;7.286;2023-06-22T00:00:56;100128.16;;;22.78;62.49
55540;BME280;41384;51.418;7.286;2023-06-22T00:03:22;100124.66;;;22.77;63.29
55540;BME280;41384;51.418;7.286;2023-06-22T00:05:49;100127.09;;;22.79;63.58
55540;BME280;41384;51.418;7.286;2023-06-22T00:08:16;100128.66;;;22.85;63.46
55540;BME280;41384;51.418;7.286;2023-06-22T00:10:42;100133.03;;;22.76;63.90
55540;BME280;41384;51.418;7.286;2023-06-22T00:13:08;100126.06;;;22.69;64.11
55540;BME280;41384;51.418;7.286;2023-06-22T00:15:35;100133.06;;;22.70;64.04
55540;BME280;41384;51.418;7.286;2023-06-22T00:20:27;100127.38;;;22.72;64.34
55540;BME280;41384;51.418;7.286;2023-06-22T00:22:57;100129.13;;;22.52;64.90
55540;BME280;41384;51.418;7.286;2023-06-22T00:25:23;100133.69;;;22.52;65.41
55540;BME280;41384;51.418;7.286;2023-06-22T00:27:49;100135.34;;;22.48;65.19
55540;BME280;41384;51.418;7.286;2023-06-22T00:30:17;100132.75;;;22.27;67.00
55540;BME280;41384;51.418;7.286;2023-06-22T00:32:44;100134.31;;;22.33;66.32
55540;BME280;41384;51.418;7.286;2023-06-22T00:35:11;100128.41;;;22.31;66.20
55540;BME280;41384;51.418;7.286;2023-06-22T00:37:37;100130.31;;;22.30;66.63
55540;BME280;41384;51.418;7.286;2023-06-22T00:40:06;100127.84;;;22.39;66.84
55540;BME280;41384;51.418;7.286;2023-06-22T00:42:33;100127.34;;;22.32;66.61
55540;BME280;41384;51.418;7.286;2023-06-22T00:44:59;100132.28;;;22.09;67.90
55540;BME280;41384;51.418;7.286;2023-06-22T00:47:24;100125.84;;;22.10;68.20
55540;BME280;41384;51.418;7.286;2023-06-22T00:49:50;100123.66;;;22.18;67.71
55540;BME280;41384;51.418;7.286;2023-06-22T00:52:19;100121.47;;;22.25;67.44
55540;BME280;41384;51.418;7.286;2023-06-22T00:54:51;100126.06;;;22.24;67.93
55540;BME280;41384;51.418;7.286;2023-06-22T00:57:17;100131.16;;;22.21;68.18
55540;BME280;41384;51.418;7.286;2023-06-22T00:59:44;100128.00;;;22.08;68.95
55540;BME280;41384;51.418;7.286;2023-06-22T01:02:09;100123.47;;;21.98;69.56
55540;BME280;41384;51.418;7.286;2023-06-22T01:04:36;100125.56;;;22.17;68.79
55540;BME280;41384;51.418;7.286;2023-06-22T01:09:51;100122.00;;;22.22;69.40
55540;BME280;41384;51.418;7.286;2023-06-22T01:12:19;100112.91;;;22.12;69.77
55540;BME280;41384;51.418;7.286;2023-06-22T01:14:50;100123.97;;;22.11;69.55
55540;BME280;41384;51.418;7.286;2023-06-22T01:17:19;100117.28;;;21.98;70.36
55540;BME280;41384;51.418;7.286;2023-06-22T01:19:46;100119.72;;;21.94;71.02
55540;BME280;41384;51.418;7.286;2023-06-22T01:22:15;100114.91;;;21.86;71.17
55540;BME280;41384;51.418;7.286;2023-06-22T01:24:51;100106.56;;;21.93;70.75
55540;BME280;41384;51.418;7.286;2023-06-22T01:28:17;100105.47;;;21.99;69.75
55540;BME280;41384;51.418;7.286;2023-06-22T01:30:18;100104.66;;;21.98;69.90
55540;BME280;41384;51.418;7.286;2023-06-22T01:32:44;100110.53;;;22.06;69.98
55540;BME280;41384;51.418;7.286;2023-06-22T01:35:10;100114.28;;;22.05;69.93
55540;BME280;41384;51.418;7.286;2023-06-22T01:37:37;100105.75;;;21.92;70.32
55540;BME280;41384;51.418;7.286;2023-06-22T01:40:04;100103.00;;;22.02;70.43
55540;BME280;41384;51.418;7.286;2023-06-22T01:42:31;100097.09;;;22.06;69.49
55540;BME280;41384;51.418;7.286;2023-06-22T01:44:57;100103.25;;;22.11;69.66
55540;BME280;41384;51.418;7.286;2023-06-22T01:47:24;100096.53;;;22.14;69.74
55540;BME280;41384;51.418;7.286;2023-06-22T01:49:50;100106.50;;;22.08;69.66
55540;BME280;41384;51.418;7.286;2023-06-22T01:52:19;100104.34;;;22.10;70.14
55540;BME280;41384;51.418;7.286;2023-06-22T01:54:46;100098.97;;;22.05;70.75
55540;BME280;41384;51.418;7.286;2023-06-22T01:57:11;100093.59;;;22.05;70.84
55540;BME280;41384;51.418;7.286;2023-06-22T02:02:19;100099.84;;;21.90;71.84
55540;BME280;41384;51.418;7.286;2023-06-22T02:04:52;100093.72;;;21.79;72.46
55540;BME280;41384;51.418;7.286;2023-06-22T02:07:20;100091.31;;;21.78;72.52
55540;BME280;41384;51.418;7.286;2023-06-22T02:09:51;100089.44;;;21.78;72.54
55540;BME280;41384;51.418;7.286;2023-06-22T02:12:21;100093.75;;;21.74;73.03
55540;BME280;41384;51.418;7.286;2023-06-22T02:14:47;100100.75;;;21.70;73.02
55540;BME280;41384;51.418;7.286;2023-06-22T02:17:13;100092.41;;;21.61;73.46
55540;BME280;41384;51.418;7.286;2023-06-22T02:19:42;100088.13;;;21.50;74.26
55540;BME280;41384;51.418;7.286;2023-06-22T02:22:07;100091.59;;;21.61;73.83
55540;BME280;41384;51.418;7.286;2023-06-22T02:24:32;100084.88;;;21.74;73.14
55540;BME280;41384;51.418;7.286;2023-06-22T02:26:59;100089.81;;;21.30;75.27
55540;BME280;41384;51.418;7.286;2023-06-22T02:29:24;100094.31;;;21.40;75.14
55540;BME280;41384;51.418;7.286;2023-06-22T02:31:49;100085.75;;;21.27;75.92
55540;BME280;41384;51.418;7.286;2023-06-22T02:34:15;100085.53;;;21.24;76.68
55540;BME280;41384;51.418;7.286;2023-06-22T02:36:47;100081.19;;;21.43;75.69
55540;BME280;41384;51.418;7.286;2023-06-22T02:39:24;100075.78;;;21.54;75.46
55540;BME280;41384;51.418;7.286;2023-06-22T02:41:50;100075.00;;;21.33;76.71
55540;BME280;41384;51.418;7.286;2023-06-22T02:44:16;100070.72;;;21.37;76.35
55540;BME280;41384;51.418;7.286;2023-06-22T02:46:42;100077.72;;;21.22;77.55
55540;BME280;41384;51.418;7.286;2023-06-22T02:49:07;100069.66;;;21.22;77.96
55540;BME280;41384;51.418;7.286;2023-06-22T02:51:33;100071.56;;;21.27;77.21
55540;BME280;41384;51.418;7.286;2023-06-22T02:53:59;100071.25;;;21.34;76.84
55540;BME280;41384;51.418;7.286;2023-06-22T02:56:25;100072.88;;;21.35;77.19
55540;BME280;41384;51.418;7.286;2023-06-22T02:58:50;100063.50;;;21.32;76.59
55540;BME280;41384;51.418;7.286;2023-06-22T03:01:16;100074.47;;;21.36;77.05
55540;BME280;41384;51.418;7.286;2023-06-22T03:03:41;100072.59;;;21.36;76.23
55540;BME280;41384;51.418;7.286;2023-06-22T03:06:06;100066.94;;;21.43;76.22
55540;BME280;41384;51.418;7.286;2023-06-22T03:08:32;100063.19;;;21.39;76.81
55540;BME280;41384;51.418;7.286;2023-06-22T03:10:57;100059.16;;;21.41;76.29
55540;BME280;41384;51.418;7.286;2023-06-22T03:13:23;100052.19;;;21.40;76.62
55540;BME280;41384;51.418;7.286;2023-06-22T03:15:48;100062.41;;;21.33;77.33
55540;BME280;41384;51.418;7.286;2023-06-22T03:18:14;100047.38;;;21.32;77.14
55540;BME280;41384;51.418;7.286;2023-06-22T03:20:40;100039.56;;;21.36;76.86
55540;BME280;41384;51.418;7.286;2023-06-22T03:23:06;100038.25;;;21.33;77.30
55540;BME280;41384;51.418;7.286;2023-06-22T03:25:31;100044.72;;;21.27;77.79
55540;BME280;41384;51.418;7.286;2023-06-22T03:27:56;100049.28;;;21.16;78.51
55540;BME280;41384;51.418;7.286;2023-06-22T03:30:21;100042.31;;;21.10;79.18
55540;BME280;41384;51.418;7.286;2023-06-22T03:32:47;100052.50;;;21.18;77.97
55540;BME280;41384;51.418;7.286;2023-06-22T03:35:12;100050.59;;;21.34;77.74
55540;BME280;41384;51.418;7.286;2023-06-22T03:37:39;100046.53;;;21.42;77.42
55540;BME280;41384;51.418;7.286;2023-06-22T03:40:05;100043.59;;;21.43;76.33
55540;BME280;41384;51.418;7.286;2023-06-22T03:42:30;100042.25;;;21.41;76.31
55540;BME280;41384;51.418;7.286;2023-06-22T03:44:56;100041.72;;;21.34;76.94
55540;BME280;41384;51.418;7.286;2023-06-22T03:47:22;100040.13;;;21.33;77.39
55540;BME280;41384;51.418;7.286;2023-06-22T03:49:47;100046.53;;;21.37;76.53
55540;BME280;41384;51.418;7.286;2023-06-22T03:52:13;100043.84;;;21.47;76.28
55540;BME280;41384;51.418;7.286;2023-06-22T03:54:38;100031.25;;;21.42;76.77
55540;BME280;41384;51.418;7.286;2023-06-22T03:57:03;100020.22;;;21.44;77.42
55540;BME280;41384;51.418;7.286;2023-06-22T03:59:29;100020.25;;;21.34;77.90
55540;BME280;41384;51.418;7.286;2023-06-22T04:01:54;100018.06;;;21.41;78.18
55540;BME280;41384;51.418;7.286;2023-06-22T04:04:19;100020.75;;;21.41;78.41
55540;BME280;41384;51.418;7.286;2023-06-22T04:06:45;100017.22;;;21.56;78.15
55540;BME280;41384;51.418;7.286;2023-06-22T04:09:10;100013.69;;;21.61;77.51
55540;BME280;41384;51.418;7.286;2023-06-22T04:11:35;100017.47;;;21.70;77.55
55540;BME280;41384;51.418;7.286;2023-06-22T04:14:01;100025.53;;;21.70;77.12
55540;BME280;41384;51.418;7.286;2023-06-22T04:16:26;100021.22;;;21.74;77.22
55540;BME280;41384;51.418;7.286;2023-06-22T04:18:52;100027.38;;;21.75;77.49
55540;BME280;41384;51.418;7.286;2023-06-22T04:21:17;100031.69;;;21.70;77.18
55540;BME280;41384;51.418;7.286;2023-06-22T04:23:44;100036.28;;;21.54;76.92
55540;BME280;41384;51.418;7.286;2023-06-22T04:26:11;100034.66;;;21.69;77.92
55540;BME280;41384;51.418;7.286;2023-06-22T04:28:36;100036.00;;;21.71;77.35
55540;BME280;41384;51.418;7.286;2023-06-22T04:31:02;100028.78;;;21.67;77.45
55540;BME280;41384;51.418;7.286;2023-06-22T04:33:28;100027.94;;;21.61;78.34
55540;BME280;41384;51.418;7.286;2023-06-22T04:35:54;100026.88;;;21.67;78.11
55540;BME280;41384;51.418;7.286;2023-06-22T04:38:22;100028.53;;;21.53;78.94
55540;BME280;41384;51.418;7.286;2023-06-22T04:40:47;100031.44;;;21.56;78.99
55540;BME280;41384;51.418;7.286;2023-06-22T04:43:12;100025.53;;;21.60;78.33
55540;BME280;41384;51.418;7.286;2023-06-22T04:45:38;100018.84;;;21.52;78.09
55540;BME280;41384;51.418;7.286;2023-06-22T04:48:04;100024.19;;;21.62;77.89
55540;BME280;41384;51.418;7.286;2023-06-22T04:50:30;100028.72;;;21.62;77.33
55540;BME280;41384;51.418;7.286;2023-06-22T04:52:55;100016.69;;;21.59;76.37
55540;BME280;41384;51.418;7.286;2023-06-22T04:55:20;100022.38;;;21.42;77.33
55540;BME280;41384;51.418;7.286;2023-06-22T04:57:46;100029.03;;;21.60;76.63
55540;BME280;41384;51.418;7.286;2023-06-22T05:00:18;100027.41;;;21.59;76.04
55540;BME280;41384;51.418;7.286;2023-06-22T05:02:45;100034.66;;;21.64;75.75
55540;BME280;41384;51.418;7.286;2023-06-22T05:05:12;100027.88;;;21.82;75.04
55540;BME280;41384;51.418;7.286;2023-06-22T05:07:43;100044.09;;;21.56;74.94
55540;BME280;41384;51.418;7.286;2023-06-22T05:10:12;100045.09;;;21.76;75.01
55540;BME280;41384;51.418;7.286;2023-06-22T05:12:40;100036.28;;;21.70;75.30
55540;BME280;41384;51.418;7.286;2023-06-22T05:15:10;100033.81;;;21.74;74.44
55540;BME280;41384;51.418;7.286;2023-06-22T05:17:36;100035.94;;;21.82;74.95
55540;BME280;41384;51.418;7.286;2023-06-22T05:20:06;100030.53;;;21.87;75.05
55540;BME280;41384;51.418;7.286;2023-06-22T05:22:32;100027.84;;;21.87;75.19
55540;BME280;41384;51.418;7.286;2023-06-22T05:24:57;100028.97;;;21.76;76.09
55540;BME280;41384;51.418;7.286;2023-06-22T05:27:22;100035.69;;;21.78;76.03
55540;BME280;41384;51.418;7.286;2023-06-22T05:29:48;100041.34;;;21.77;76.14
55540;BME280;41384;51.418;7.286;2023-06-22T05:32:13;100039.97;;;21.84;75.36
55540;BME280;41384;51.418;7.286;2023-06-22T05:34:38;100039.41;;;21.88;75.42
55540;BME280;41384;51.418;7.286;2023-06-22T05:37:04;100028.66;;;21.88;75.60
55540;BME280;41384;51.418;7.286;2023-06-22T05:39:29;100038.06;;;21.85;75.12
55540;BME280;41384;51.418;7.286;2023-06-22T05:41:54;100039.94;;;21.90;75.02
55540;BME280;41384;51.418;7.286;2023-06-22T05:44:20;100036.16;;;21.96;74.51
55540;BME280;41384;51.418;7.286;2023-06-22T05:46:45;100032.88;;;22.04;73.92
55540;BME280;41384;51.418;7.286;2023-06-22T05:49:14;100029.66;;;22.02;73.64
55540;BME280;41384;51.418;7.286;2023-06-22T05:51:40;100031.81;;;22.00;74.14
55540;BME280;41384;51.418;7.286;2023-06-22T05:54:05;100031.00;;;21.99;73.88
55540;BME280;41384;51.418;7.286;2023-06-22T05:56:31;100038.50;;;22.02;73.33
55540;BME280;41384;51.418;7.286;2023-06-22T05:58:56;100039.34;;;22.03;73.57
55540;BME280;41384;51.418;7.286;2023-06-22T06:01:21;100035.28;;;22.06;73.41
55540;BME280;41384;51.418;7.286;2023-06-22T06:03:47;100041.78;;;21.94;73.61
55540;BME280;41384;51.418;7.286;2023-06-22T06:06:14;100045.78;;;22.02;73.81
55540;BME280;41384;51.418;7.286;2023-06-22T06:08:40;100045.19;;;22.10;74.29
55540;BME280;41384;51.418;7.286;2023-06-22T06:11:06;100046.78;;;22.16;74.04
55540;BME280;41384;51.418;7.286;2023-06-22T06:13:31;100039.19;;;22.24;73.00
55540;BME280;41384;51.418;7.286;2023-06-22T06:15:56;100031.66;;;22.26;72.52
55540;BME280;41384;51.418;7.286;2023-06-22T06:18:22;100035.69;;;22.28;72.15
55540;BME280;41384;51.418;7.286;2023-06-22T06:20:48;100036.59;;;22.13;72.82
55540;BME280;41384;51.418;7.286;2023-06-22T06:23:13;100027.31;;;22.30;72.57
55540;BME280;41384;51.418;7.286;2023-06-22T06:25:39;100028.06;;;22.41;73.42
55540;BME280;41384;51.418;7.286;2023-06-22T06:28:04;100030.19;;;22.44;73.91
55540;BME280;41384;51.418;7.286;2023-06-22T06:30:30;100026.47;;;22.40;73.55
55540;BME280;41384;51.418;7.286;2023-06-22T06:32:55;100022.91;;;22.44;73.34
55540;BME280;41384;51.418;7.286;2023-06-22T06:35:21;100030.97;;;22.44;73.61
55540;BME280;41384;51.418;7.286;2023-06-22T06:37:49;100033.16;;;22.48;74.03
55540;BME280;41384;51.418;7.286;2023-06-22T06:40:16;100023.47;;;22.41;73.68
55540;BME280;41384;51.418;7.286;2023-06-22T06:42:48;100033.19;;;22.37;73.67
55540;BME280;41384;51.418;7.286;2023-06-22T06:45:19;100032.06;;;22.43;74.16
55540;BME280;41384;51.418;7.286;2023-06-22T06:47:45;100040.13;;;22.43;74.82
55540;BME280;41384;51.418;7.286;2023-06-22T06:50:11;100035.31;;;22.40;74.79
55540;BME280;41384;51.418;7.286;2023-06-22T06:52:37;100024.06;;;22.33;74.54
55540;BME280;41384;51.418;7.286;2023-06-22T06:55:02;100026.72;;;22.38;74.56
55540;BME280;41384;51.418;7.286;2023-06-22T06:57:30;100023.56;;;22.31;76.26
55540;BME280;41384;51.418;7.286;2023-06-22T06:59:56;100019.78;;;22.32;75.64
55540;BME280;41384;51.418;7.286;2023-06-22T07:02:22;100024.06;;;22.33;76.02
55540;BME280;41384;51.418;7.286;2023-06-22T07:04:48;100027.19;;;22.51;75.89
55540;BME280;41384;51.418;7.286;2023-06-22T07:07:14;100030.41;;;22.53;75.10
55540;BME280;41384;51.418;7.286;2023-06-22T07:09:39;100025.97;;;22.33;75.70
55540;BME280;41384;51.418;7.286;2023-06-22T07:12:04;100029.69;;;22.42;75.98
55540;BME280;41384;51.418;7.286;2023-06-22T07:14:30;100016.75;;;22.44;76.48
55540;BME280;41384;51.418;7.286;2023-06-22T07:16:57;100017.84;;;22.43;77.06
55540;BME280;41384;51.418;7.286;2023-06-22T07:19:26;100014.28;;;22.53;76.39
55540;BME280;41384;51.418;7.286;2023-06-22T07:21:55;100019.38;;;22.54;78.09
55540;BME280;41384;51.418;7.286;2023-06-22T07:24:21;100026.13;;;22.52;79.68
55540;BME280;41384;51.418;7.286;2023-06-22T07:26:50;100024.28;;;22.42;84.31
55540;BME280;41384;51.418;7.286;2023-06-22T07:29:16;100029.41;;;22.38;83.94
55540;BME280;41384;51.418;7.286;2023-06-22T07:31:42;100012.25;;;22.34;86.67
55540;BME280;41384;51.418;7.286;2023-06-22T07:34:07;100008.81;;;22.28;89.26
55540;BME280;41384;51.418;7.286;2023-06-22T07:36:32;99997.28;;;22.23;92.65
55540;BME280;41384;51.418;7.286;2023-06-22T07:38:57;99997.34;;;22.12;94.80
55540;BME280;41384;51.418;7.286;2023-06-22T07:41:23;99996.25;;;22.13;95.32
55540;BME280;41384;51.418;7.286;2023-06-22T07:43:48;99995.22;;;22.09;96.74
55540;BME280;41384;51.418;7.286;2023-06-22T07:46:14;99994.94;;;22.11;98.25
55540;BME280;41384;51.418;7.286;2023-06-22T07:48:39;99984.38;;;22.20;100.00
55540;BME280;41384;51.418;7.286;2023-06-22T07:51:06;99985.47;;;22.19;100.00
55540;BME280;41384;51.418;7.286;2023-06-22T07:53:32;99982.34;;;22.06;100.00
55540;BME280;41384;51.418;7.286;2023-06-22T07:55:57;99981.91;;;21.89;100.00
55540;BME280;41384;51.418;7.286;2023-06-22T07:58:22;99984.72;;;22.08;100.00
55540;BME280;41384;51.418;7.286;2023-06-22T08:00:48;99979.53;;;22.22;100.00
55540;BME280;41384;51.418;7.286;2023-06-22T08:03:14;99977.66;;;22.22;100.00
55540;BME280;41384;51.418;7.286;2023-06-22T08:05:39;99973.84;;;22.28;100.00
55540;BME280;41384;51.418;7.286;2023-06-22T08:08:05;99968.22;;;22.25;100.00
55540;BME280;41384;51.418;7.286;2023-06-22T08:10:30;99966.53;;;22.34;100.00
55540;BME280;41384;51.418;7.286;2023-06-22T08:12:55;99969.47;;;22.38;100.00
55540;BME280;41384;51.418;7.286;2023-06-22T08:15:20;99959.63;;;22.23;100.00
55540;BME280;41384;51.418;7.286;2023-06-22T08:17:47;99963.31;;;22.32;100.00
55540;BME280;41384;51.418;7.286;2023-06-22T08:20:12;99969.19;;;22.39;100.00
55540;BME280;41384;51.418;7.286;2023-06-22T08:22:38;99980.75;;;22.45;100.00
55540;BME280;41384;51.418;7.286;2023-06-22T08:25:04;99969.13;;;22.44;100.00
55540;BME280;41384;51.418;7.286;2023-06-22T08:27:30;99954.88;;;22.49;100.00
55540;BME280;41384;51.418;7.286;2023-06-22T08:29:59;99945.88;;;22.29;100.00
55540;BME280;41384;51.418;7.286;2023-06-22T08:32:26;99928.19;;;22.58;100.00
55540;BME280;41384;51.418;7.286;2023-06-22T08:34:53;99934.09;;;22.60;100.00
55540;BME280;41384;51.418;7.286;2023-06-22T08:37:19;99929.63;;;22.74;100.00
55540;BME280;41384;51.418;7.286;2023-06-22T08:39:44;99936.88;;;22.44;100.00
55540;BME280;41384;51.418;7.286;2023-06-22T08:42:10;99928.41;;;22.62;100.00
55540;BME280;41384;51.418;7.286;2023-06-22T08:44:35;99933.78;;;22.62;100.00
55540;BME280;41384;51.418;7.286;2023-06-22T08:47:00;99923.69;;;22.78;100.00
55540;BME280;41384;51.418;7.286;2023-06-22T08:49:26;99929.59;;;22.80;100.00
55540;BME280;41384;51.418;7.286;2023-06-22T08:51:51;99918.31;;;22.78;100.00
55540;BME280;41384;51.418;7.286;2023-06-22T08:54:18;99917.38;;;22.87;100.00
55540;BME280;41384;51.418;7.286;2023-06-22T08:56:43;99918.31;;;22.78;100.00
55540;BME280;41384;51.418;7.286;2023-06-22T08:59:09;99917.56;;;22.96;100.00
55540;BME280;41384;51.418;7.286;2023-06-22T09:01:34;99916.41;;;23.02;100.00
55540;BME280;41384;51.418;7.286;2023-06-22T09:03:59;99914.50;;;23.27;100.00
55540;BME280;41384;51.418;7.286;2023-06-22T09:06:25;99913.09;;;23.54;96.95
55540;BME280;41384;51.418;7.286;2023-06-22T09:08:50;99910.19;;;23.70;94.38
55540;BME280;41384;51.418;7.286;2023-06-22T09:11:16;99903.97;;;23.88;93.14
55540;BME280;41384;51.418;7.286;2023-06-22T09:13:41;99906.66;;;23.88;91.69
55540;BME280;41384;51.418;7.286;2023-06-22T09:16:07;99908.34;;;23.84;94.29
55540;BME280;41384;51.418;7.286;2023-06-22T09:18:33;99897.13;;;23.96;90.95
55540;BME280;41384;51.418;7.286;2023-06-22T09:20:59;99880.13;;;24.15;89.90
55540;BME280;41384;51.418;7.286;2023-06-22T09:23:24;99882.56;;;24.30;88.27
55540;BME280;41384;51.418;7.286;2023-06-22T09:25:49;99884.56;;;24.39;84.55
55540;BME280;41384;51.418;7.286;2023-06-22T09:28:15;99884.88;;;24.51;83.79
55540;BME280;41384;51.418;7.286;2023-06-22T09:30:40;99879.78;;;24.63;83.30
55540;BME280;41384;51.418;7.286;2023-06-22T09:33:05;99876.34;;;24.77;80.99
55540;BME280;41384;51.418;7.286;2023-06-22T09:35:31;99870.50;;;24.70;82.05
55540;BME280;41384;51.418;7.286;2023-06-22T09:37:56;99863.13;;;24.75;80.92
55540;BME280;41384;51.418;7.286;2023-06-22T09:40:21;99851.91;;;24.96;78.18
55540;BME280;41384;51.418;7.286;2023-06-22T09:42:46;99850.13;;;24.77;76.38
55540;BME280;41384;51.418;7.286;2023-06-22T09:45:12;99848.34;;;24.87;79.27
55540;BME280;41384;51.418;7.286;2023-06-22T09:47:37;99852.41;;;24.98;78.63
55540;BME280;41384;51.418;7.286;2023-06-22T09:50:03;99854.78;;;25.14;75.18
55540;BME280;41384;51.418;7.286;2023-06-22T09:52:28;99858.81;;;25.02;76.21
55540;BME280;41384;51.418;7.286;2023-06-22T09:54:53;99855.00;;;25.03;74.99
55540;BME280;41384;51.418;7.286;2023-06-22T09:57:19;99854.41;;;25.06;75.73
55540;BME280;41384;51.418;7.286;2023-06-22T09:59:44;99850.47;;;25.13;75.36
55540;BME280;41384;51.418;7.286;2023-06-22T10:02:09;99849.38;;;25.14;74.76
55540;BME280;41384;51.418;7.286;2023-06-22T10:04:34;99843.97;;;25.14;73.45
55540;BME280;41384;51.418;7.286;2023-06-22T10:07:01;99837.97;;;25.17;72.28
55540;BME280;41384;51.418;7.286;2023-06-22T10:09:26;99839.78;;;25.21;71.20
55540;BME280;41384;51.418;7.286;2023-06-22T10:11:52;99832.16;;;25.24;72.03
55540;BME280;41384;51.418;7.286;2023-06-22T10:14:17;99822.97;;;25.25;71.81
55540;BME280;41384;51.418;7.286;2023-06-22T10:16:42;99828.13;;;25.35;71.13
55540;BME280;41384;51.418;7.286;2023-06-22T10:19:07;99828.63;;;25.37;70.86
55540;BME280;41384;51.418;7.286;2023-06-22T10:21:33;99826.72;;;25.38;70.10
55540;BME280;41384;51.418;7.286;2023-06-22T10:23:59;99829.00;;;25.44;70.01
55540;BME280;41384;51.418;7.286;2023-06-22T10:26:27;99824.59;;;25.48;70.67
55540;BME280;41384;51.418;7.286;2023-06-22T10:28:54;99820.00;;;25.49;71.60
55540;BME280;41384;51.418;7.286;2023-06-22T10:31:19;99820.53;;;25.60;71.77
55540;BME280;41384;51.418;7.286;2023-06-22T10:33:44;99824.78;;;25.75;71.24
55540;BME280;41384;51.418;7.286;2023-06-22T10:36:10;99828.72;;;25.69;70.30
55540;BME280;41384;51.418;7.286;2023-06-22T10:38:36;99823.44;;;25.63;69.92
55540;BME280;41384;51.418;7.286;2023-06-22T10:41:01;99816.75;;;25.61;73.34
55540;BME280;41384;51.418;7.286;2023-06-22T10:43:27;99815.22;;;25.69;72.11
55540;BME280;41384;51.418;7.286;2023-06-22T10:45:53;99804.28;;;25.74;71.51
55540;BME280;41384;51.418;7.286;2023-06-22T10:48:18;99809.50;;;25.70;73.78
55540;BME280;41384;51.418;7.286;2023-06-22T10:50:43;99806.00;;;25.70;72.65
55540;BME280;41384;51.418;7.286;2023-06-22T10:53:08;99798.22;;;25.68;73.20
55540;BME280;41384;51.418;7.286;2023-06-22T10:55:34;99804.16;;;25.56;73.70
55540;BME280;41384;51.418;7.286;2023-06-22T10:57:59;99814.22;;;25.42;75.37
55540;BME280;41384;51.418;7.286;2023-06-22T11:00:24;99823.66;;;25.30;76.14
55540;BME280;41384;51.418;7.286;2023-06-22T11:02:49;99844.06;;;25.23;75.84
55540;BME280;41384;51.418;7.286;2023-06-22T11:05:15;99855.38;;;25.11;75.98
55540;BME280;41384;51.418;7.286;2023-06-22T11:07:43;99860.13;;;25.05;77.12
55540;BME280;41384;51.418;7.286;2023-06-22T11:10:10;99870.03;;;24.96;78.08
55540;BME280;41384;51.418;7.286;2023-06-22T11:12:35;99865.03;;;24.89;80.23
55540;BME280;41384;51.418;7.286;2023-06-22T11:15:01;99871.84;;;24.86;79.99
55540;BME280;41384;51.418;7.286;2023-06-22T11:17:26;99875.94;;;24.84;83.12
55540;BME280;41384;51.418;7.286;2023-06-22T11:19:51;99872.72;;;24.82;88.87
55540;BME280;41384;51.418;7.286;2023-06-22T11:22:17;99876.13;;;24.73;91.50
55540;BME280;41384;51.418;7.286;2023-06-22T11:24:42;99867.59;;;24.66;96.82
55540;BME280;41384;51.418;7.286;2023-06-22T11:27:07;99862.91;;;24.58;100.00
55540;BME280;41384;51.418;7.286;2023-06-22T11:29:32;99855.00;;;24.47;100.00
55540;BME280;41384;51.418;7.286;2023-06-22T11:31:58;99853.28;;;24.38;100.00
55540;BME280;41384;51.418;7.286;2023-06-22T11:34:23;99860.47;;;24.28;100.00
55540;BME280;41384;51.418;7.286;2023-06-22T11:36:48;99857.56;;;24.25;100.00
55540;BME280;41384;51.418;7.286;2023-06-22T11:39:13;99856.06;;;24.18;100.00
55540;BME280;41384;51.418;7.286;2023-06-22T11:41:40;99852.44;;;24.09;100.00
55540;BME280;41384;51.418;7.286;2023-06-22T11:44:05;99848.81;;;24.00;100.00
55540;BME280;41384;51.418;7.286;2023-06-22T11:46:32;99840.28;;;23.93;100.00
55540;BME280;41384;51.418;7.286;2023-06-22T11:48:57;99842.28;;;23.87;100.00
55540;BME280;41384;51.418;7.286;2023-06-22T11:51:22;99847.97;;;23.85;100.00
55540;BME280;41384;51.418;7.286;2023-06-22T11:53:48;99852.94;;;23.78;100.00
55540;BME280;41384;51.418;7.286;2023-06-22T11:56:13;99865.47;;;23.69;100.00
55540;BME280;41384;51.418;7.286;2023-06-22T11:58:38;99860.25;;;23.58;100.00
55540;BME280;41384;51.418;7.286;2023-06-22T12:01:03;99860.50;;;23.57;100.00
55540;BME280;41384;51.418;7.286;2023-06-22T12:03:30;99851.22;;;23.49;100.00
55540;BME280;41384;51.418;7.286;2023-06-22T12:05:55;99851.41;;;23.53;100.00
55540;BME280;41384;51.418;7.286;2023-06-22T12:08:20;99850.63;;;23.52;100.00
55540;BME280;41384;51.418;7.286;2023-06-22T12:10:46;99828.84;;;23.49;100.00
55540;BME280;41384;51.418;7.286;2023-06-22T12:13:11;99810.00;;;23.49;100.00
55540;BME280;41384;51.418;7.286;2023-06-22T12:15:36;99797.03;;;23.51;100.00
55540;BME280;41384;51.418;7.286;2023-06-22T12:18:02;99793.91;;;23.43;100.00
55540;BME280;41384;51.418;7.286;2023-06-22T12:20:27;99792.75;;;23.50;100.00
55540;BME280;41384;51.418;7.286;2023-06-22T12:22:53;99788.03;;;23.41;100.00
55540;BME280;41384;51.418;7.286;2023-06-22T12:25:21;99778.13;;;23.37;100.00
55540;BME280;41384;51.418;7.286;2023-06-22T12:27:47;99762.13;;;23.26;100.00
55540;BME280;41384;51.418;7.286;2023-06-22T12:30:12;99748.66;;;23.26;100.00
55540;BME280;41384;51.418;7.286;2023-06-22T12:32:37;99744.56;;;23.10;100.00
55540;BME280;41384;51.418;7.286;2023-06-22T12:35:03;99755.66;;;23.08;100.00
55540;BME280;41384;51.418;7.286;2023-06-22T12:37:28;99744.06;;;22.88;100.00
55540;BME280;41384;51.418;7.286;2023-06-22T12:39:54;99726.25;;;22.93;100.00
55540;BME280;41384;51.418;7.286;2023-06-22T12:42:19;99713.16;;;22.86;100.00
55540;BME280;41384;51.418;7.286;2023-06-22T12:44:46;99695.84;;;22.92;100.00
55540;BME280;41384;51.418;7.286;2023-06-22T12:47:11;99709.38;;;22.87;100.00
55540;BME280;41384;51.418;7.286;2023-06-22T12:49:38;99718.41;;;22.96;100.00
55540;BME280;41384;51.418;7.286;2023-06-22T12:52:08;99718.31;;;22.82;100.00
55540;BME280;41384;51.418;7.286;2023-06-22T12:54:34;99698.69;;;22.82;100.00